Time;durP1;ratioP1;P1;durP2;ratioP2;P2;SDS_P1;SDS_P2;PMS_P1;PMS_P2;Temp;Humidity;BMP_temperature;BMP_pressure;BME280_temperature;BME280_humidity;BME280_pressure;Samples;Min_cycle;Max_cycle;Signal;HPM_P1;HPM_P2
2022/06/16 00:00:37;;;;;;;12.67;9.20;;;;;;;;;;5106715;28;20226;-75
2022/06/16 00:03:05;;;;;;;15.77;9.67;;;;;;;;;;5099897;28;20226;-75
2022/06/16 00:05:34;;;;;;;11.93;9.00;;;;;;;;;;5099021;28;20281;-75
2022/06/16 00:08:03;;;;;;;13.63;9.63;;;;;;;;;;5102891;28;20624;-75
2022/06/16 00:10:30;;;;;;;13.07;9.33;;;;;;;;;;5100766;28;20226;-76
2022/06/16 00:12:57;;;;;;;13.77;9.50;;;;;;;;;;5098363;28;20706;-75
2022/06/16 00:15:27;;;;;;;13.47;9.37;;;;;;;;;;5113144;28;20267;-75
2022/06/16 00:17:55;;;;;;;13.63;9.73;;;;;;;;;;5111767;28;20618;-75
2022/06/16 00:20:22;;;;;;;11.83;10.03;;;;;;;;;;5103994;28;20214;-75
2022/06/16 00:22:49;;;;;;;11.13;9.30;;;;;;;;;;5115320;27;20195;-75
2022/06/16 00:25:18;;;;;;;12.80;9.40;;;;;;;;;;5120612;27;20225;-75
2022/06/16 00:27:45;;;;;;;11.90;9.30;;;;;;;;;;5104098;28;20285;-75
2022/06/16 00:30:13;;;;;;;12.27;9.53;;;;;;;;;;5111625;27;20222;-75
2022/06/16 00:32:41;;;;;;;14.77;10.60;;;;;;;;;;5106376;27;20277;-75
2022/06/16 00:35:09;;;;;;;12.27;9.37;;;;;;;;;;5101921;28;20553;-75
2022/06/16 00:37:36;;;;;;;12.00;9.40;;;;;;;;;;5103839;28;20601;-75
2022/06/16 00:40:03;;;;;;;16.17;9.87;;;;;;;;;;5103049;28;20644;-75
2022/06/16 00:42:32;;;;;;;14.13;9.00;;;;;;;;;;5098708;28;20356;-75
2022/06/16 00:44:59;;;;;;;12.60;9.13;;;;;;;;;;5098081;27;20298;-75
2022/06/16 00:47:30;;;;;;;14.00;9.57;;;;;;;;;;5098556;27;20289;-75
2022/06/16 00:49:59;;;;;;;13.23;9.70;;;;;;;;;;5109588;27;20658;-75
2022/06/16 00:52:27;;;;;;;14.07;9.23;;;;;;;;;;5109183;28;20292;-75
2022/06/16 00:54:57;;;;;;;13.33;8.67;;;;;;;;;;5111278;27;20193;-75
2022/06/16 00:57:32;;;;;;;12.90;8.93;;;;;;;;;;5111346;28;20297;-76
2022/06/16 01:00:07;;;;;;;13.93;9.40;;;;;;;;;;5111113;28;20260;-75
2022/06/16 01:02:34;;;;;;;12.60;9.60;;;;;;;;;;5101922;28;20563;-75
2022/06/16 01:05:01;;;;;;;12.77;9.27;;;;;;;;;;5107971;27;20681;-76
2022/06/16 01:07:30;;;;;;;14.30;9.30;;;;;;;;;;5117144;27;20201;-75
2022/06/16 01:09:57;;;;;;;15.87;9.80;;;;;;;;;;5111532;28;20233;-76
2022/06/16 01:15:30;;;;;;;14.50;10.50;;;;;;;;;;5099303;28;20197;-76
2022/06/16 01:18:03;;;;;;;12.40;10.13;;;;;;;;;;5104901;28;20229;-76
2022/06/16 01:20:36;;;;;;;14.00;10.30;;;;;;;;;;5111930;28;20712;-75
2022/06/16 01:23:22;;;;;;;11.57;10.23;;;;;;;;;;5112167;28;20218;-76
2022/06/16 01:25:56;;;;;;;15.27;10.77;;;;;;;;;;5101058;28;20285;-76
2022/06/16 01:28:25;;;;;;;18.37;11.90;;;;;;;;;;5094352;28;20202;-76
2022/06/16 01:30:58;;;;;;;14.87;11.80;;;;;;;;;;5097051;28;20194;-76
2022/06/16 01:33:27;;;;;;;13.37;11.53;;;;;;;;;;5100147;28;20565;-76
2022/06/16 01:35:58;;;;;;;13.57;11.53;;;;;;;;;;5102205;28;20715;-76
2022/06/16 01:38:29;;;;;;;18.10;12.37;;;;;;;;;;5096966;28;20237;-75
2022/06/16 01:41:00;;;;;;;18.60;12.20;;;;;;;;;;5096951;28;20304;-75
2022/06/16 01:43:29;;;;;;;15.10;12.23;;;;;;;;;;5099698;28;20237;-75
2022/06/16 01:46:00;;;;;;;16.43;12.00;;;;;;;;;;5090950;28;20313;-76
2022/06/16 01:48:29;;;;;;;14.93;12.93;;;;;;;;;;5096424;28;20236;-75
2022/06/16 01:50:57;;;;;;;15.17;13.17;;;;;;;;;;5102334;28;20284;-76
2022/06/16 01:53:28;;;;;;;20.43;13.27;;;;;;;;;;5106452;28;20721;-76
2022/06/16 01:56:10;;;;;;;15.03;12.57;;;;;;;;;;5102552;28;20241;-75
2022/06/16 01:58:40;;;;;;;16.63;13.27;;;;;;;;;;5107457;28;20280;-76
2022/06/16 02:01:10;;;;;;;18.30;13.70;;;;;;;;;;5109096;28;20580;-75
2022/06/16 02:03:40;;;;;;;16.70;14.10;;;;;;;;;;5092203;28;20220;-76
2022/06/16 02:06:11;;;;;;;18.60;13.93;;;;;;;;;;5109567;27;20234;-75
2022/06/16 02:08:40;;;;;;;16.00;14.30;;;;;;;;;;5097023;28;20686;-76
2022/06/16 02:11:11;;;;;;;18.33;14.83;;;;;;;;;;5106500;28;20296;-75
2022/06/16 02:13:41;;;;;;;19.37;14.93;;;;;;;;;;5111063;28;20254;-76
2022/06/16 02:16:12;;;;;;;19.87;14.73;;;;;;;;;;5100438;28;20281;-75
2022/06/16 02:18:40;;;;;;;18.17;15.47;;;;;;;;;;5101419;28;20277;-75
2022/06/16 02:21:12;;;;;;;21.90;16.87;;;;;;;;;;5102419;28;20228;-75
2022/06/16 02:23:39;;;;;;;24.57;18.10;;;;;;;;;;5093588;28;20202;-76
2022/06/16 02:26:07;;;;;;;21.37;17.83;;;;;;;;;;5098715;28;20297;-75
2022/06/16 02:28:42;;;;;;;24.33;18.50;;;;;;;;;;5098509;28;20658;-76
2022/06/16 02:31:19;;;;;;;25.43;18.93;;;;;;;;;;5104508;28;20205;-76
2022/06/16 02:33:54;;;;;;;22.10;18.93;;;;;;;;;;5108459;28;20198;-76
2022/06/16 02:36:26;;;;;;;25.37;19.33;;;;;;;;;;5104528;28;20291;-75
2022/06/16 02:39:00;;;;;;;25.07;18.53;;;;;;;;;;5103961;28;20292;-76
2022/06/16 02:41:32;;;;;;;24.43;19.33;;;;;;;;;;5103620;28;20721;-76
2022/06/16 02:44:05;;;;;;;27.17;20.50;;;;;;;;;;5106757;27;20233;-75
2022/06/16 02:46:41;;;;;;;25.23;20.33;;;;;;;;;;5094101;28;20232;-75
2022/06/16 02:49:15;;;;;;;25.30;19.50;;;;;;;;;;5104520;28;20277;-76
2022/06/16 02:51:45;;;;;;;28.60;20.40;;;;;;;;;;5105205;28;20289;-76
2022/06/16 02:54:20;;;;;;;29.93;20.77;;;;;;;;;;5107212;27;20298;-76
2022/06/16 02:56:52;;;;;;;25.57;21.43;;;;;;;;;;5112504;27;20197;-75
2022/06/16 02:59:22;;;;;;;26.00;21.67;;;;;;;;;;5117138;27;20242;-76
2022/06/16 03:01:51;;;;;;;24.10;19.40;;;;;;;;;;5100615;27;20257;-76
2022/06/16 03:04:19;;;;;;;27.67;20.00;;;;;;;;;;5121648;27;20198;-76
2022/06/16 03:06:47;;;;;;;28.77;18.90;;;;;;;;;;5103727;28;20285;-76
2022/06/16 03:09:15;;;;;;;29.07;20.40;;;;;;;;;;5103330;28;20238;-76
2022/06/16 03:11:42;;;;;;;24.63;19.73;;;;;;;;;;5093798;28;20248;-76
2022/06/16 03:14:09;;;;;;;22.37;19.83;;;;;;;;;;5097075;28;20226;-76
2022/06/16 03:16:38;;;;;;;23.30;19.07;;;;;;;;;;5105528;28;20237;-76
2022/06/16 03:19:06;;;;;;;25.03;19.97;;;;;;;;;;5112517;28;20202;-76
2022/06/16 03:21:34;;;;;;;25.17;18.73;;;;;;;;;;5097396;28;20305;-76
2022/06/16 03:24:01;;;;;;;28.97;20.80;;;;;;;;;;5101711;28;20280;-75
2022/06/16 03:26:28;;;;;;;28.07;20.93;;;;;;;;;;5101228;28;20209;-76
2022/06/16 03:28:56;;;;;;;24.50;20.27;;;;;;;;;;5104322;27;20688;-76
2022/06/16 03:31:23;;;;;;;27.17;20.57;;;;;;;;;;5110072;27;20619;-76
2022/06/16 03:33:50;;;;;;;30.13;20.90;;;;;;;;;;5109431;28;20281;-76
2022/06/16 03:36:19;;;;;;;28.20;21.97;;;;;;;;;;5093050;28;20309;-76
2022/06/16 03:38:46;;;;;;;27.87;20.70;;;;;;;;;;5093214;28;20199;-76
2022/06/16 03:41:14;;;;;;;29.30;21.00;;;;;;;;;;5097699;27;20695;-76
2022/06/16 03:43:41;;;;;;;23.67;20.03;;;;;;;;;;5104703;28;20463;-75
2022/06/16 03:46:11;;;;;;;27.23;20.73;;;;;;;;;;5094757;28;20218;-76
2022/06/16 03:48:38;;;;;;;26.07;19.33;;;;;;;;;;5100535;28;20198;-75
2022/06/16 03:51:07;;;;;;;27.03;21.27;;;;;;;;;;5099628;28;20233;-76
2022/06/16 03:53:36;;;;;;;23.90;20.87;;;;;;;;;;5127769;27;20679;-75
2022/06/16 03:56:03;;;;;;;26.73;22.40;;;;;;;;;;5107603;27;20222;-76
2022/06/16 03:58:30;;;;;;;29.87;21.30;;;;;;;;;;5110427;27;20203;-75
2022/06/16 04:00:57;;;;;;;25.50;21.27;;;;;;;;;;5120404;27;20264;-75
2022/06/16 04:06:10;;;;;;;29.93;21.87;;;;;;;;;;5093132;28;20198;-75
2022/06/16 04:08:40;;;;;;;32.03;22.53;;;;;;;;;;5092919;28;20245;-75
2022/06/16 04:13:48;;;;;;;28.63;22.13;;;;;;;;;;5092375;28;20248;-75
2022/06/16 04:16:15;;;;;;;29.63;22.17;;;;;;;;;;5094039;28;20623;-75
2022/06/16 04:18:42;;;;;;;27.50;21.77;;;;;;;;;;5100945;28;20282;-75
2022/06/16 04:21:11;;;;;;;26.50;21.13;;;;;;;;;;5105834;28;20308;-75
2022/06/16 04:23:39;;;;;;;24.80;20.90;;;;;;;;;;5104983;28;20233;-75
2022/06/16 04:26:07;;;;;;;27.87;21.60;;;;;;;;;;5094390;28;20603;-75
2022/06/16 04:28:34;;;;;;;27.97;21.53;;;;;;;;;;5099767;28;20745;-75
2022/06/16 04:31:01;;;;;;;27.20;22.13;;;;;;;;;;5109070;28;20197;-75
2022/06/16 04:33:29;;;;;;;25.37;21.57;;;;;;;;;;5100970;28;20221;-75
2022/06/16 04:35:56;;;;;;;27.37;22.00;;;;;;;;;;5105699;27;20233;-75
2022/06/16 04:38:23;;;;;;;27.40;20.97;;;;;;;;;;5101019;28;20277;-76
2022/06/16 04:40:52;;;;;;;26.77;21.03;;;;;;;;;;5106436;27;20229;-75
2022/06/16 04:43:19;;;;;;;25.10;22.00;;;;;;;;;;5102633;28;20629;-75
2022/06/16 04:45:46;;;;;;;31.00;22.13;;;;;;;;;;5092297;28;20254;-75
2022/06/16 04:48:14;;;;;;;24.27;21.13;;;;;;;;;;5111477;27;20591;-76
2022/06/16 04:50:41;;;;;;;28.63;22.57;;;;;;;;;;5119811;27;20625;-75
2022/06/16 04:53:08;;;;;;;28.73;22.33;;;;;;;;;;5111206;28;20611;-76
2022/06/16 04:55:35;;;;;;;27.70;21.57;;;;;;;;;;5098352;28;20202;-75
2022/06/16 04:58:05;;;;;;;29.97;23.00;;;;;;;;;;5095586;28;20231;-75
2022/06/16 05:00:32;;;;;;;27.37;21.43;;;;;;;;;;5111314;27;20324;-75
2022/06/16 05:02:59;;;;;;;25.53;21.27;;;;;;;;;;5097576;28;20312;-75
2022/06/16 05:05:26;;;;;;;27.63;21.67;;;;;;;;;;5110806;27;20232;-75
2022/06/16 05:07:53;;;;;;;23.33;20.60;;;;;;;;;;5126134;27;20277;-75
2022/06/16 05:10:21;;;;;;;24.67;21.80;;;;;;;;;;5111586;28;20726;-75
2022/06/16 05:12:48;;;;;;;25.47;21.70;;;;;;;;;;5098828;28;20226;-74
2022/06/16 05:15:17;;;;;;;26.70;20.83;;;;;;;;;;5109583;28;20236;-74
2022/06/16 05:17:44;;;;;;;25.07;21.10;;;;;;;;;;5106306;28;20284;-75
2022/06/16 05:20:11;;;;;;;24.37;19.50;;;;;;;;;;5099742;28;20229;-74
2022/06/16 05:22:38;;;;;;;24.70;20.37;;;;;;;;;;5101323;28;20629;-75
2022/06/16 05:25:06;;;;;;;22.87;19.23;;;;;;;;;;5103758;28;20190;-75
2022/06/16 05:27:33;;;;;;;24.57;19.47;;;;;;;;;;5100995;27;20237;-74
2022/06/16 05:30:01;;;;;;;22.00;17.97;;;;;;;;;;5094529;28;20631;-75
2022/06/16 05:32:30;;;;;;;23.07;17.43;;;;;;;;;;5096645;28;20202;-75
2022/06/16 05:34:57;;;;;;;22.20;15.47;;;;;;;;;;5106039;28;20293;-75
2022/06/16 05:37:24;;;;;;;18.83;15.13;;;;;;;;;;5099364;28;20784;-75
2022/06/16 05:39:52;;;;;;;19.67;15.40;;;;;;;;;;5099781;28;20574;-75
2022/06/16 05:42:20;;;;;;;18.17;14.53;;;;;;;;;;5080222;28;20225;-75
2022/06/16 05:44:47;;;;;;;15.33;13.40;;;;;;;;;;5098004;28;20705;-76
2022/06/16 05:47:14;;;;;;;16.90;13.60;;;;;;;;;;5102001;28;20316;-75
2022/06/16 05:49:44;;;;;;;20.57;13.00;;;;;;;;;;5105901;28;20198;-75
2022/06/16 05:52:13;;;;;;;15.07;12.57;;;;;;;;;;5095416;28;20217;-76
2022/06/16 05:54:41;;;;;;;14.52;12.82;;;;;;;;;;5099007;28;20194;-75
2022/06/16 05:57:08;;;;;;;16.10;12.02;;;;;;;;;;5111573;28;20229;-75
2022/06/16 05:59:36;;;;;;;14.63;11.18;;;;;;;;;;5106135;28;20205;-75
2022/06/16 06:02:03;;;;;;;14.70;11.55;;;;;;;;;;5105318;28;20772;-75
2022/06/16 06:04:31;;;;;;;15.60;11.50;;;;;;;;;;5101386;28;20753;-75
2022/06/16 06:06:59;;;;;;;13.57;10.85;;;;;;;;;;5106701;28;20209;-75
2022/06/16 06:18:09;;;;;;;13.52;10.25;;;;;;;;;;5010491;28;20291;-75
2022/06/16 06:20:39;;;;;;;11.13;8.32;;;;;;;;;;5008281;28;20289;-75
2022/06/16 06:23:08;;;;;;;10.20;8.23;;;;;;;;;;5006493;28;20658;-75
2022/06/16 06:25:35;;;;;;;9.20;8.20;;;;;;;;;;5009571;28;20598;-75
2022/06/16 06:28:03;;;;;;;9.15;7.78;;;;;;;;;;5008925;28;20267;-75
2022/06/16 06:30:31;;;;;;;9.18;8.13;;;;;;;;;;5010598;28;21704;-75
2022/06/16 06:32:59;;;;;;;9.38;7.97;;;;;;;;;;5006344;28;20755;-75
2022/06/16 06:35:26;;;;;;;10.70;8.23;;;;;;;;;;5009080;28;20197;-75
2022/06/16 06:37:53;;;;;;;10.45;7.22;;;;;;;;;;5009663;28;20288;-74
2022/06/16 06:40:23;;;;;;;9.02;8.00;;;;;;;;;;5008806;28;20686;-75
2022/06/16 06:42:51;;;;;;;9.65;7.82;;;;;;;;;;5009163;28;20345;-74
2022/06/16 06:45:18;;;;;;;8.85;7.50;;;;;;;;;;5013713;28;20312;-75
2022/06/16 06:47:46;;;;;;;10.18;7.60;;;;;;;;;;5044122;28;20243;-74
2022/06/16 06:50:19;;;;;;;8.23;6.57;;;;;;;;;;5047254;28;20282;-75
2022/06/16 06:52:46;;;;;;;11.63;6.80;;;;;;;;;;5055121;28;20203;-74
2022/06/16 06:55:14;;;;;;;9.23;7.63;;;;;;;;;;5067850;27;20229;-75
2022/06/16 06:57:42;;;;;;;8.00;7.07;;;;;;;;;;5121578;27;20202;-75
2022/06/16 07:00:11;;;;;;;11.75;8.05;;;;;;;;;;5115470;27;20292;-76
2022/06/16 07:02:38;;;;;;;9.18;7.22;;;;;;;;;;5101743;27;20245;-76
2022/06/16 07:05:07;;;;;;;8.65;7.53;;;;;;;;;;5111352;27;20225;-76
2022/06/16 07:07:35;;;;;;;10.02;7.95;;;;;;;;;;5106720;27;20277;-76
2022/06/16 07:10:02;;;;;;;8.35;7.40;;;;;;;;;;5106265;27;20229;-76
2022/06/16 07:12:29;;;;;;;9.85;6.85;;;;;;;;;;5103404;27;20198;-76
2022/06/16 07:14:58;;;;;;;8.90;6.78;;;;;;;;;;5103948;28;20677;-76
2022/06/16 07:17:25;;;;;;;8.23;6.95;;;;;;;;;;5104951;27;20233;-76
2022/06/16 07:19:53;;;;;;;10.20;7.10;;;;;;;;;;5108395;27;20650;-76
2022/06/16 07:22:20;;;;;;;9.45;6.78;;;;;;;;;;5109181;27;20238;-76
2022/06/16 07:24:48;;;;;;;9.55;7.10;;;;;;;;;;5102987;28;20748;-76
2022/06/16 07:27:16;;;;;;;10.95;7.85;;;;;;;;;;5106297;27;20234;-76
2022/06/16 07:29:46;;;;;;;10.38;8.25;;;;;;;;;;5117694;27;20276;-76
2022/06/16 07:32:15;;;;;;;10.13;7.75;;;;;;;;;;5111877;27;20527;-77
2022/06/16 07:34:42;;;;;;;10.30;7.38;;;;;;;;;;5108759;28;20225;-77
2022/06/16 07:37:10;;;;;;;9.43;7.60;;;;;;;;;;5102938;27;20328;-77
2022/06/16 07:39:38;;;;;;;9.07;7.68;;;;;;;;;;5103078;27;20225;-77
2022/06/16 07:42:06;;;;;;;10.10;8.23;;;;;;;;;;5107522;27;20214;-77
2022/06/16 07:44:33;;;;;;;8.88;6.72;;;;;;;;;;5120946;27;20663;-76
2022/06/16 07:47:00;;;;;;;12.13;6.40;;;;;;;;;;5102387;27;20602;-76
2022/06/16 07:49:29;;;;;;;8.43;6.20;;;;;;;;;;5121982;27;20293;-76
2022/06/16 07:51:58;;;;;;;7.78;6.32;;;;;;;;;;5106210;27;20216;-76
2022/06/16 07:54:26;;;;;;;7.70;5.78;;;;;;;;;;5103731;28;20217;-76
2022/06/16 07:56:53;;;;;;;9.88;5.88;;;;;;;;;;5110344;27;20319;-77
2022/06/16 07:59:20;;;;;;;8.65;5.38;;;;;;;;;;5112788;27;20289;-76
2022/06/16 08:01:47;;;;;;;6.32;5.05;;;;;;;;;;5100051;28;20330;-75
2022/06/16 08:04:15;;;;;;;6.40;4.80;;;;;;;;;;5092063;28;20281;-75
2022/06/16 08:06:44;;;;;;;5.80;4.13;;;;;;;;;;5092390;28;20814;-75
2022/06/16 08:09:11;;;;;;;5.43;3.95;;;;;;;;;;5092674;28;20293;-75
2022/06/16 08:14:24;;;;;;;7.45;3.88;;;;;;;;;;5111252;27;20575;-75
2022/06/16 08:16:51;;;;;;;6.75;3.30;;;;;;;;;;5109065;27;20197;-75
2022/06/16 08:19:19;;;;;;;5.25;3.50;;;;;;;;;;5118581;27;20240;-75
2022/06/16 08:21:47;;;;;;;5.45;2.95;;;;;;;;;;5118528;27;20736;-75
2022/06/16 08:24:15;;;;;;;5.07;3.10;;;;;;;;;;5117591;27;20240;-75
2022/06/16 08:26:42;;;;;;;5.15;2.80;;;;;;;;;;5120576;27;20276;-75
2022/06/16 08:29:11;;;;;;;4.63;2.60;;;;;;;;;;5111195;27;20720;-75
2022/06/16 08:31:39;;;;;;;3.45;2.35;;;;;;;;;;5109821;27;20247;-75
2022/06/16 08:34:06;;;;;;;4.20;2.63;;;;;;;;;;5107068;27;20285;-75
2022/06/16 08:36:34;;;;;;;3.65;2.30;;;;;;;;;;5103617;27;20264;-75
2022/06/16 08:39:02;;;;;;;5.45;2.70;;;;;;;;;;5102448;27;20705;-75
2022/06/16 08:41:32;;;;;;;3.05;2.53;;;;;;;;;;5092273;28;20241;-75
2022/06/16 08:44:03;;;;;;;5.03;2.30;;;;;;;;;;5104964;28;20260;-75
2022/06/16 08:46:34;;;;;;;5.38;2.47;;;;;;;;;;5091959;28;20658;-75
2022/06/16 08:49:04;;;;;;;3.20;2.30;;;;;;;;;;5094912;28;20292;-76
2022/06/16 08:51:43;;;;;;;7.85;2.70;;;;;;;;;;5111036;27;20633;-77
2022/06/16 08:54:17;;;;;;;5.30;2.72;;;;;;;;;;5107184;28;20193;-77
2022/06/16 08:56:48;;;;;;;3.50;2.38;;;;;;;;;;5111404;27;20657;-77
2022/06/16 08:59:22;;;;;;;4.57;2.50;;;;;;;;;;5116433;27;20280;-76
2022/06/16 09:01:54;;;;;;;4.72;2.67;;;;;;;;;;5107394;27;20769;-76
2022/06/16 09:04:25;;;;;;;4.03;2.40;;;;;;;;;;5094476;28;20718;-76
2022/06/16 09:06:59;;;;;;;4.32;2.40;;;;;;;;;;5109695;27;20205;-76
2022/06/16 09:12:27;;;;;;;7.97;2.67;;;;;;;;;;5110621;28;20205;-76
2022/06/16 09:17:47;;;;;;;3.75;2.63;;;;;;;;;;5108317;28;20202;-76
2022/06/16 09:20:18;;;;;;;5.20;2.55;;;;;;;;;;5108890;28;20294;-76
2022/06/16 09:22:57;;;;;;;4.88;2.40;;;;;;;;;;5102190;28;20226;-76
2022/06/16 09:25:35;;;;;;;3.75;2.50;;;;;;;;;;5116229;28;20291;-76
2022/06/16 09:28:05;;;;;;;4.97;2.33;;;;;;;;;;5112058;28;20280;-76
2022/06/16 09:30:35;;;;;;;4.88;2.42;;;;;;;;;;5094381;28;20280;-76
2022/06/16 09:33:04;;;;;;;4.30;2.45;;;;;;;;;;5102683;28;20256;-77
2022/06/16 09:35:33;;;;;;;2.88;2.00;;;;;;;;;;5111764;28;20292;-76
2022/06/16 09:38:03;;;;;;;4.13;2.35;;;;;;;;;;5105629;28;20241;-76
2022/06/16 09:40:35;;;;;;;2.88;2.50;;;;;;;;;;5110251;28;20204;-76
2022/06/16 09:43:07;;;;;;;3.97;2.40;;;;;;;;;;5106966;28;20256;-75
2022/06/16 09:45:37;;;;;;;4.25;2.40;;;;;;;;;;5101675;28;20275;-75
2022/06/16 09:48:06;;;;;;;4.28;2.20;;;;;;;;;;5104473;27;20301;-75
2022/06/16 09:50:38;;;;;;;4.30;2.22;;;;;;;;;;5114247;28;20289;-75
2022/06/16 09:53:06;;;;;;;4.60;2.13;;;;;;;;;;5101656;28;20245;-75
2022/06/16 09:55:37;;;;;;;5.80;2.40;;;;;;;;;;5104300;28;20289;-75
2022/06/16 09:58:09;;;;;;;2.95;2.15;;;;;;;;;;5120027;27;20202;-75
2022/06/16 10:00:36;;;;;;;2.20;2.00;;;;;;;;;;5122697;27;20328;-75
2022/06/16 10:03:17;;;;;;;3.85;2.10;;;;;;;;;;5114902;27;20249;-74
2022/06/16 10:05:50;;;;;;;3.35;2.03;;;;;;;;;;5106761;28;20225;-74
2022/06/16 10:08:20;;;;;;;5.28;2.20;;;;;;;;;;5098136;28;20198;-75
2022/06/16 10:10:52;;;;;;;5.85;2.40;;;;;;;;;;5118095;27;20240;-75
2022/06/16 10:13:25;;;;;;;6.95;2.33;;;;;;;;;;5103709;27;20275;-75
2022/06/16 10:15:56;;;;;;;5.45;2.42;;;;;;;;;;5116881;27;20202;-74
2022/06/16 10:18:24;;;;;;;3.65;2.25;;;;;;;;;;5110634;27;20219;-74
2022/06/16 10:20:51;;;;;;;3.22;2.17;;;;;;;;;;5121703;27;20220;-75
2022/06/16 10:23:22;;;;;;;3.15;2.08;;;;;;;;;;5125206;27;20313;-75
2022/06/16 10:25:54;;;;;;;4.05;2.40;;;;;;;;;;5109036;27;20748;-76
2022/06/16 10:28:27;;;;;;;2.85;1.90;;;;;;;;;;5116013;27;20209;-76
2022/06/16 10:30:54;;;;;;;3.72;2.38;;;;;;;;;;5097141;28;20202;-76
2022/06/16 10:33:22;;;;;;;3.88;2.58;;;;;;;;;;5106891;27;20277;-75
2022/06/16 10:35:52;;;;;;;2.85;2.20;;;;;;;;;;5107668;28;20313;-75
2022/06/16 10:38:29;;;;;;;3.78;2.45;;;;;;;;;;5104182;27;20197;-75
2022/06/16 10:40:58;;;;;;;3.13;2.40;;;;;;;;;;5105599;27;20202;-74
2022/06/16 10:43:26;;;;;;;3.00;2.70;;;;;;;;;;5116550;27;20244;-75
2022/06/16 10:45:59;;;;;;;3.05;2.35;;;;;;;;;;5111380;28;20306;-75
2022/06/16 10:48:29;;;;;;;2.42;2.13;;;;;;;;;;5098440;28;20209;-75
2022/06/16 10:51:00;;;;;;;3.97;2.15;;;;;;;;;;5102998;28;20268;-74
2022/06/16 10:53:29;;;;;;;3.75;2.60;;;;;;;;;;5117262;27;20305;-75
2022/06/16 10:56:02;;;;;;;4.88;2.55;;;;;;;;;;5106692;27;20293;-75
2022/06/16 10:58:31;;;;;;;3.30;2.25;;;;;;;;;;5112019;28;20205;-75
2022/06/16 11:01:03;;;;;;;4.22;2.53;;;;;;;;;;5113187;27;21002;-75
2022/06/16 11:03:34;;;;;;;2.22;2.03;;;;;;;;;;5100601;28;20313;-75
2022/06/16 11:06:01;;;;;;;4.20;2.30;;;;;;;;;;5101213;28;20306;-75
2022/06/16 11:08:34;;;;;;;3.78;2.33;;;;;;;;;;5113490;28;20317;-75
2022/06/16 11:11:03;;;;;;;2.95;2.28;;;;;;;;;;5114807;27;20229;-75
2022/06/16 11:13:32;;;;;;;2.92;2.63;;;;;;;;;;5129336;27;20225;-74
2022/06/16 11:15:59;;;;;;;4.03;2.47;;;;;;;;;;5117354;27;20661;-75
2022/06/16 11:18:28;;;;;;;5.40;2.60;;;;;;;;;;5097186;28;20286;-75
2022/06/16 11:20:57;;;;;;;3.47;2.47;;;;;;;;;;5102829;28;20292;-74
2022/06/16 11:23:29;;;;;;;2.92;2.60;;;;;;;;;;5101957;28;20253;-75
2022/06/16 11:26:00;;;;;;;4.40;2.30;;;;;;;;;;5103520;28;20610;-75
2022/06/16 11:28:29;;;;;;;5.80;2.53;;;;;;;;;;5114245;27;20657;-75
2022/06/16 11:30:58;;;;;;;4.35;2.28;;;;;;;;;;5111091;27;20206;-75
2022/06/16 11:36:14;;;;;;;2.40;2.20;;;;;;;;;;5099236;27;20684;-75
2022/06/16 11:38:46;;;;;;;5.05;2.40;;;;;;;;;;5096724;28;20222;-75
2022/06/16 11:41:15;;;;;;;3.80;2.60;;;;;;;;;;5113500;27;20244;-75
2022/06/16 11:43:52;;;;;;;4.13;2.22;;;;;;;;;;5116818;27;20256;-75
2022/06/16 11:46:21;;;;;;;5.30;2.38;;;;;;;;;;5108172;27;20237;-74
2022/06/16 11:48:54;;;;;;;3.08;2.42;;;;;;;;;;5098386;28;20225;-75
2022/06/16 11:51:24;;;;;;;3.03;2.20;;;;;;;;;;5106904;27;20198;-75
2022/06/16 11:54:04;;;;;;;3.58;2.58;;;;;;;;;;5120892;27;20293;-75
2022/06/16 11:56:35;;;;;;;4.35;2.25;;;;;;;;;;5107055;27;20777;-75
2022/06/16 11:59:10;;;;;;;4.03;2.50;;;;;;;;;;5103680;27;20199;-75
2022/06/16 12:01:40;;;;;;;2.83;2.50;;;;;;;;;;5113579;27;20650;-75
2022/06/16 12:04:26;;;;;;;2.83;2.20;;;;;;;;;;5112898;27;20220;-75
2022/06/16 12:07:04;;;;;;;2.70;2.30;;;;;;;;;;5094276;28;20598;-75
2022/06/16 12:09:36;;;;;;;6.93;2.70;;;;;;;;;;5105781;27;20345;-75
2022/06/16 12:12:07;;;;;;;5.03;2.63;;;;;;;;;;5092746;28;20198;-75
2022/06/16 12:14:41;;;;;;;4.40;2.50;;;;;;;;;;5102763;28;20225;-75
2022/06/16 12:17:13;;;;;;;4.00;2.22;;;;;;;;;;5106484;27;20264;-75
2022/06/16 12:19:44;;;;;;;7.30;2.45;;;;;;;;;;5102838;28;20661;-75
2022/06/16 12:22:15;;;;;;;4.35;2.42;;;;;;;;;;5097843;28;20278;-75
2022/06/16 12:24:46;;;;;;;5.72;2.58;;;;;;;;;;5108882;28;20633;-75
2022/06/16 12:27:16;;;;;;;4.68;1.90;;;;;;;;;;5098187;28;20293;-75
2022/06/16 12:29:48;;;;;;;3.88;2.20;;;;;;;;;;5111495;28;20198;-74
2022/06/16 12:32:20;;;;;;;4.55;1.85;;;;;;;;;;5102051;27;20285;-75
2022/06/16 12:34:55;;;;;;;3.15;2.00;;;;;;;;;;5102197;27;20252;-75
2022/06/16 12:37:23;;;;;;;4.70;2.10;;;;;;;;;;5106654;27;20247;-75
2022/06/16 12:39:53;;;;;;;3.83;2.20;;;;;;;;;;5121909;27;20642;-75
2022/06/16 12:42:23;;;;;;;4.05;2.30;;;;;;;;;;5113686;27;20462;-75
2022/06/16 12:44:54;;;;;;;3.33;2.40;;;;;;;;;;5112804;27;20245;-75
2022/06/16 12:47:23;;;;;;;4.65;2.20;;;;;;;;;;5131696;27;20233;-75
2022/06/16 12:49:53;;;;;;;2.45;2.25;;;;;;;;;;5112932;27;20237;-75
2022/06/16 12:52:23;;;;;;;3.45;2.03;;;;;;;;;;5111708;28;20233;-75
2022/06/16 12:54:54;;;;;;;3.92;2.28;;;;;;;;;;5112186;28;20312;-75
2022/06/16 12:57:24;;;;;;;4.57;2.40;;;;;;;;;;5099372;27;20205;-74
2022/06/16 12:59:55;;;;;;;3.17;2.00;;;;;;;;;;5093658;28;20289;-75
2022/06/16 13:02:23;;;;;;;3.45;2.00;;;;;;;;;;5098442;28;20264;-75
2022/06/16 13:04:52;;;;;;;5.93;2.30;;;;;;;;;;5096666;27;20278;-75
2022/06/16 13:07:21;;;;;;;2.08;1.83;;;;;;;;;;5101157;27;20289;-75
2022/06/16 13:09:48;;;;;;;3.58;2.00;;;;;;;;;;5092912;27;20285;-75
2022/06/16 13:12:17;;;;;;;5.85;2.38;;;;;;;;;;5123412;27;20229;-75
2022/06/16 13:14:49;;;;;;;4.03;2.30;;;;;;;;;;5113537;27;20536;-75
2022/06/16 13:17:18;;;;;;;2.72;2.30;;;;;;;;;;5094762;28;20267;-75
2022/06/16 13:19:48;;;;;;;2.72;2.03;;;;;;;;;;5091856;28;20194;-75
2022/06/16 13:22:21;;;;;;;2.45;1.90;;;;;;;;;;5090413;28;20625;-75
2022/06/16 13:24:53;;;;;;;3.63;2.00;;;;;;;;;;5091429;28;20276;-75
2022/06/16 13:27:24;;;;;;;4.00;1.70;;;;;;;;;;5111719;28;20233;-75
2022/06/16 13:29:59;;;;;;;3.55;1.90;;;;;;;;;;5119645;28;20193;-75
2022/06/16 13:32:39;;;;;;;4.80;1.98;;;;;;;;;;5091667;28;20281;-75
2022/06/16 13:35:21;;;;;;;4.00;1.95;;;;;;;;;;5106631;28;20289;-75
2022/06/16 13:37:49;;;;;;;3.00;1.95;;;;;;;;;;5101861;27;20289;-75
2022/06/16 13:40:22;;;;;;;4.85;1.70;;;;;;;;;;5111793;28;20719;-75
2022/06/16 13:43:03;;;;;;;4.20;2.08;;;;;;;;;;5102154;28;20285;-75
2022/06/16 13:45:52;;;;;;;4.32;2.00;;;;;;;;;;5109623;28;20320;-75
2022/06/16 13:48:31;;;;;;;3.47;2.03;;;;;;;;;;5108828;28;20285;-75
2022/06/16 13:50:59;;;;;;;2.88;1.73;;;;;;;;;;5091100;28;20241;-75
2022/06/16 13:53:27;;;;;;;4.13;2.05;;;;;;;;;;5091181;28;20552;-75
2022/06/16 13:55:56;;;;;;;2.13;1.92;;;;;;;;;;5091486;28;20301;-75
2022/06/16 13:58:25;;;;;;;2.88;1.90;;;;;;;;;;5109425;28;20288;-75
2022/06/16 14:01:05;;;;;;;3.63;1.80;;;;;;;;;;5099284;28;20313;-75
2022/06/16 14:03:34;;;;;;;2.40;1.85;;;;;;;;;;5102231;28;20284;-74
2022/06/16 14:06:05;;;;;;;3.25;2.17;;;;;;;;;;5101752;28;20241;-75
2022/06/16 14:08:32;;;;;;;2.83;2.05;;;;;;;;;;5094294;28;20557;-75
2022/06/16 14:11:14;;;;;;;4.15;1.80;;;;;;;;;;5104671;28;20297;-75
2022/06/16 14:13:45;;;;;;;3.90;1.80;;;;;;;;;;5110998;28;20289;-75
2022/06/16 14:16:21;;;;;;;5.43;1.85;;;;;;;;;;5114492;28;20201;-75
2022/06/16 14:18:54;;;;;;;3.33;2.10;;;;;;;;;;5107935;27;20798;-75
2022/06/16 14:21:24;;;;;;;4.25;2.00;;;;;;;;;;5104379;28;20206;-75
2022/06/16 14:23:57;;;;;;;3.20;1.88;;;;;;;;;;5123672;28;20287;-75
2022/06/16 14:26:26;;;;;;;3.47;1.95;;;;;;;;;;5115389;27;20193;-75
2022/06/16 14:28:57;;;;;;;3.92;1.73;;;;;;;;;;5110795;28;20225;-75
2022/06/16 14:31:26;;;;;;;2.13;1.70;;;;;;;;;;5091458;28;20206;-75
2022/06/16 14:33:57;;;;;;;4.40;1.80;;;;;;;;;;5092313;28;20241;-75
2022/06/16 14:36:26;;;;;;;2.78;1.95;;;;;;;;;;5095138;28;20251;-75
2022/06/16 14:38:55;;;;;;;3.70;2.33;;;;;;;;;;5094552;28;20289;-75
2022/06/16 14:41:26;;;;;;;2.42;1.90;;;;;;;;;;5113856;27;20239;-74
2022/06/16 14:43:58;;;;;;;2.15;1.90;;;;;;;;;;5096432;27;20281;-75
2022/06/16 14:46:28;;;;;;;2.83;1.90;;;;;;;;;;5094876;28;20339;-74
2022/06/16 14:48:58;;;;;;;3.88;1.90;;;;;;;;;;5093750;28;20242;-75
2022/06/16 14:51:28;;;;;;;2.63;1.77;;;;;;;;;;5094490;28;20237;-74
2022/06/16 14:54:00;;;;;;;2.10;1.70;;;;;;;;;;5108811;28;20309;-75
2022/06/16 14:56:27;;;;;;;3.45;2.15;;;;;;;;;;5121558;27;20288;-74
2022/06/16 14:58:57;;;;;;;2.83;1.80;;;;;;;;;;5121298;27;20269;-75
2022/06/16 15:01:26;;;;;;;4.50;1.70;;;;;;;;;;5114574;27;20236;-75
2022/06/16 15:03:54;;;;;;;3.83;1.80;;;;;;;;;;5111544;27;20224;-75
2022/06/16 15:06:23;;;;;;;1.98;1.80;;;;;;;;;;5116608;27;20281;-75
2022/06/16 15:08:52;;;;;;;5.97;1.80;;;;;;;;;;5100944;27;20198;-75
2022/06/16 15:11:22;;;;;;;2.97;1.98;;;;;;;;;;5113820;27;20197;-75
2022/06/16 15:13:51;;;;;;;4.70;1.80;;;;;;;;;;5115012;27;20229;-75
2022/06/16 15:19:06;;;;;;;2.15;1.80;;;;;;;;;;5100590;28;20227;-75